Time;durP1;ratioP1;P1;durP2;ratioP2;P2;SDS_P1;SDS_P2;PMS_P1;PMS_P2;Temp;Humidity;BMP_temperature;BMP_pressure;BME280_temperature;BME280_humidity;BME280_pressure;Samples;Min_cycle;Max_cycle;Signal;HPM_P1;HPM_P2
2023/06/29 00:01:25;;;;;;;16.77;13.93;;;18.20;99.90;;;;;;4883645;29;20043;-92
2023/06/29 00:03:52;;;;;;;15.65;13.98;;;18.20;99.90;;;;;;4905433;29;20055;-92
2023/06/29 00:06:18;;;;;;;17.85;15.70;;;18.20;99.90;;;;;;4908610;29;20480;-92
2023/06/29 00:08:44;;;;;;;17.20;14.52;;;18.30;99.90;;;;;;4907365;29;20031;-92
2023/06/29 00:11:10;;;;;;;16.45;13.52;;;18.20;99.90;;;;;;4917887;29;20055;-92
2023/06/29 00:13:36;;;;;;;16.42;14.18;;;18.20;99.90;;;;;;4906202;29;20133;-92
2023/06/29 00:16:02;;;;;;;17.17;14.00;;;18.20;99.90;;;;;;4909876;29;20087;-92
2023/06/29 00:18:28;;;;;;;15.60;13.98;;;18.20;99.90;;;;;;4910731;29;20074;-92
2023/06/29 00:20:54;;;;;;;20.27;14.57;;;18.20;99.90;;;;;;4912877;29;20487;-92
2023/06/29 00:23:20;;;;;;;16.73;15.00;;;18.30;99.90;;;;;;4919247;29;20043;-92
2023/06/29 00:25:49;;;;;;;16.43;14.80;;;18.20;99.90;;;;;;4914596;29;20040;-93
2023/06/29 00:28:15;;;;;;;16.23;13.48;;;18.30;99.90;;;;;;4905494;29;20063;-92
2023/06/29 00:30:41;;;;;;;17.60;15.15;;;18.20;99.90;;;;;;4920418;29;20404;-92
2023/06/29 00:33:07;;;;;;;17.52;15.23;;;18.30;99.90;;;;;;4905663;29;20043;-92
2023/06/29 00:35:33;;;;;;;16.90;15.00;;;18.20;99.90;;;;;;4908128;29;20047;-92
2023/06/29 00:37:58;;;;;;;17.92;15.90;;;18.30;99.90;;;;;;4902566;29;20054;-92
2023/06/29 00:40:24;;;;;;;17.42;15.55;;;18.30;99.90;;;;;;4902526;29;20123;-92
2023/06/29 00:42:50;;;;;;;17.88;15.85;;;18.30;99.90;;;;;;4917397;29;20443;-92
2023/06/29 00:45:16;;;;;;;20.90;16.95;;;18.30;99.90;;;;;;4903423;29;20452;-92
2023/06/29 00:47:42;;;;;;;22.48;16.30;;;18.30;99.90;;;;;;4908122;29;20124;-92
2023/06/29 00:50:09;;;;;;;17.40;15.60;;;18.20;99.90;;;;;;4889927;29;20049;-93
2023/06/29 00:52:34;;;;;;;17.75;15.85;;;18.20;99.90;;;;;;4898298;29;20478;-92
2023/06/29 00:55:01;;;;;;;16.65;14.85;;;18.20;99.90;;;;;;4917517;29;20035;-92
2023/06/29 00:57:29;;;;;;;18.48;15.90;;;18.20;99.90;;;;;;4894913;29;20082;-92
2023/06/29 00:59:59;;;;;;;18.58;15.13;;;18.20;99.90;;;;;;4906667;29;20465;-92
2023/06/29 01:02:26;;;;;;;16.92;15.25;;;18.20;99.90;;;;;;4915358;29;20395;-92
2023/06/29 01:04:52;;;;;;;16.95;15.13;;;18.20;99.90;;;;;;4902964;29;20039;-92
2023/06/29 01:08:02;;;;;;;18.35;16.42;;;18.20;99.90;;;;;;4884817;29;20055;-92
2023/06/29 01:10:32;;;;;;;19.52;16.33;;;18.20;99.90;;;;;;4845805;29;20097;-92
2023/06/29 01:13:01;;;;;;;18.40;15.38;;;18.30;99.90;;;;;;4845836;29;20517;-92
2023/06/29 01:15:27;;;;;;;17.77;15.88;;;18.20;99.90;;;;;;4884287;29;20051;-92
2023/06/29 01:17:55;;;;;;;18.48;16.42;;;18.30;99.90;;;;;;4904827;28;20044;-91
2023/06/29 01:20:25;;;;;;;17.92;15.85;;;18.30;99.90;;;;;;4906987;29;20056;-92
2023/06/29 01:23:24;;;;;;;19.95;17.25;;;18.20;99.90;;;;;;4909956;29;20083;-92
2023/06/29 01:25:50;;;;;;;;;;;18.30;99.90;;;;;;4896785;29;20048;-91
2023/06/29 01:28:17;;;;;;;19.30;16.95;;;18.20;99.90;;;;;;4900677;29;19925;-91
2023/06/29 01:30:49;;;;;;;22.88;18.23;;;18.20;99.90;;;;;;4905339;29;20639;-91
2023/06/29 01:33:23;;;;;;;20.52;17.65;;;18.20;99.90;;;;;;4903137;29;20051;-91
2023/06/29 01:35:53;;;;;;;21.02;16.33;;;18.20;99.90;;;;;;4917817;29;20044;-91
2023/06/29 01:38:38;;;;;;;19.77;17.67;;;18.20;99.90;;;;;;4916280;29;20040;-91
2023/06/29 01:41:06;;;;;;;21.40;17.85;;;18.20;99.90;;;;;;4915578;29;20107;-91
2023/06/29 01:43:33;;;;;;;20.63;17.10;;;18.20;99.90;;;;;;4916277;29;20115;-90
2023/06/29 01:45:59;;;;;;;20.05;17.90;;;18.20;99.90;;;;;;4896902;29;20036;-91
2023/06/29 01:48:26;;;;;;;25.15;19.15;;;18.20;99.90;;;;;;4886724;29;20126;-91
2023/06/29 01:50:52;;;;;;;19.80;17.27;;;18.20;99.90;;;;;;4886443;29;20083;-91
2023/06/29 01:53:18;;;;;;;18.42;16.23;;;18.20;99.90;;;;;;4880536;29;20055;-92
2023/06/29 01:55:44;;;;;;;21.75;17.90;;;18.20;99.90;;;;;;4906423;29;20051;-92
2023/06/29 01:58:10;;;;;;;19.27;16.50;;;18.20;99.90;;;;;;4888910;29;20036;-91
2023/06/29 02:00:36;;;;;;;19.27;17.23;;;18.20;99.90;;;;;;4872176;29;20037;-92
2023/06/29 02:03:02;;;;;;;18.02;16.10;;;18.20;99.90;;;;;;4899096;29;20063;-92
2023/06/29 02:05:27;;;;;;;20.48;16.58;;;18.20;99.90;;;;;;4896442;29;20480;-91
2023/06/29 02:07:53;;;;;;;17.67;15.00;;;18.20;99.90;;;;;;4884153;29;20055;-92
2023/06/29 02:10:19;;;;;;;19.02;16.02;;;18.20;99.90;;;;;;4872470;29;20135;-92
2023/06/29 02:12:45;;;;;;;18.42;16.45;;;18.20;99.90;;;;;;4904134;29;20052;-91
2023/06/29 02:15:11;;;;;;;19.77;16.38;;;18.20;99.90;;;;;;4889477;29;20094;-92
2023/06/29 02:17:36;;;;;;;18.63;16.63;;;18.20;99.90;;;;;;4903223;29;20503;-92
2023/06/29 02:20:02;;;;;;;17.40;15.52;;;18.20;99.90;;;;;;4904686;29;20130;-92
2023/06/29 02:22:28;;;;;;;18.92;16.70;;;18.20;99.90;;;;;;4902574;29;20284;-91
2023/06/29 02:24:54;;;;;;;19.50;17.33;;;18.20;99.90;;;;;;4896948;29;20032;-92
2023/06/29 02:27:19;;;;;;;18.05;16.15;;;18.20;99.90;;;;;;4899886;29;20036;-92
2023/06/29 02:29:45;;;;;;;19.83;16.58;;;18.20;99.90;;;;;;4880074;29;20048;-91
2023/06/29 02:32:11;;;;;;;21.42;16.15;;;18.20;99.90;;;;;;4888443;29;20094;-92
2023/06/29 02:34:36;;;;;;;18.88;16.20;;;18.20;99.90;;;;;;4898297;29;20044;-92
2023/06/29 02:37:02;;;;;;;17.92;16.00;;;18.20;99.90;;;;;;4898240;29;20048;-92
2023/06/29 02:39:28;;;;;;;22.90;16.95;;;18.20;99.90;;;;;;4896046;29;20039;-92
2023/06/29 02:41:54;;;;;;;18.23;15.77;;;18.20;99.90;;;;;;4902824;29;20043;-92
2023/06/29 02:44:20;;;;;;;20.13;17.10;;;18.20;99.90;;;;;;4890644;29;20062;-91
2023/06/29 02:46:46;;;;;;;18.80;16.80;;;18.20;99.90;;;;;;4882832;29;20040;-91
2023/06/29 02:49:12;;;;;;;19.33;16.33;;;18.20;99.90;;;;;;4883444;29;20044;-92
2023/06/29 02:51:37;;;;;;;19.38;16.92;;;18.20;99.90;;;;;;4887761;29;20515;-91
2023/06/29 02:54:03;;;;;;;18.35;16.30;;;18.10;99.90;;;;;;4898561;29;20070;-91
2023/06/29 02:56:29;;;;;;;19.60;16.85;;;18.10;99.90;;;;;;4881771;29;20558;-91
2023/06/29 02:58:54;;;;;;;19.67;15.95;;;18.10;99.90;;;;;;4883774;29;20047;-91
2023/06/29 03:01:20;;;;;;;19.45;16.85;;;18.10;99.90;;;;;;4885226;29;20050;-91
2023/06/29 03:03:46;;;;;;;18.35;16.45;;;18.10;99.90;;;;;;4883918;29;20123;-90
2023/06/29 03:06:12;;;;;;;18.35;15.48;;;18.10;99.90;;;;;;4891625;29;20039;-91
2023/06/29 03:08:37;;;;;;;18.45;16.45;;;18.10;99.90;;;;;;4903111;29;20051;-90
2023/06/29 03:11:03;;;;;;;18.50;15.73;;;18.10;99.90;;;;;;4902905;29;20039;-91
2023/06/29 03:13:29;;;;;;;16.98;15.25;;;18.10;99.90;;;;;;4879641;29;20039;-92
2023/06/29 03:15:59;;;;;;;17.73;14.95;;;18.10;99.90;;;;;;4892299;29;20396;-92
2023/06/29 03:18:25;;;;;;;16.98;15.23;;;18.10;99.90;;;;;;4904064;29;20138;-91
2023/06/29 03:20:50;;;;;;;20.13;16.83;;;18.10;99.90;;;;;;4916173;29;20091;-91
2023/06/29 03:23:16;;;;;;;17.30;15.50;;;18.10;99.90;;;;;;4902795;29;20047;-91
2023/06/29 03:25:42;;;;;;;18.17;15.85;;;18.10;99.90;;;;;;4906372;29;20039;-91
2023/06/29 03:28:08;;;;;;;18.27;15.90;;;18.10;99.90;;;;;;4898993;29;20054;-90
2023/06/29 03:30:33;;;;;;;17.65;14.85;;;18.10;99.90;;;;;;4888292;29;20107;-91
2023/06/29 03:33:01;;;;;;;19.25;15.18;;;18.10;99.90;;;;;;4902079;29;20044;-91
2023/06/29 03:35:26;;;;;;;18.08;15.90;;;18.20;99.90;;;;;;4885584;29;20098;-91
2023/06/29 03:37:52;;;;;;;16.42;14.48;;;18.20;99.90;;;;;;4888449;29;20052;-91
2023/06/29 03:40:18;;;;;;;18.20;15.68;;;18.20;99.90;;;;;;4910847;29;20080;-91
2023/06/29 03:42:44;;;;;;;18.40;16.02;;;18.20;99.90;;;;;;4902828;29;20040;-91
2023/06/29 03:45:10;;;;;;;15.68;14.02;;;18.20;99.90;;;;;;4880339;29;20044;-91
2023/06/29 03:47:35;;;;;;;18.92;14.93;;;18.20;99.90;;;;;;4877636;29;20605;-91
2023/06/29 03:50:01;;;;;;;17.20;14.70;;;18.20;99.90;;;;;;4897941;29;20231;-91
2023/06/29 03:52:27;;;;;;;16.20;14.27;;;18.20;99.90;;;;;;4901860;29;20044;-91
2023/06/29 03:54:53;;;;;;;17.60;15.35;;;18.30;99.90;;;;;;4898238;29;20053;-91
2023/06/29 03:57:18;;;;;;;17.15;15.43;;;18.20;99.90;;;;;;4886634;29;20068;-91
2023/06/29 03:59:44;;;;;;;16.75;14.52;;;18.30;99.90;;;;;;4903620;29;20039;-91
2023/06/29 04:02:09;;;;;;;17.02;13.82;;;18.20;99.90;;;;;;4880461;29;20453;-91
2023/06/29 04:04:35;;;;;;;18.08;15.40;;;18.30;99.90;;;;;;4886485;29;20086;-90
2023/06/29 04:07:01;;;;;;;17.35;14.50;;;18.30;99.90;;;;;;4881001;29;20040;-91
2023/06/29 04:09:27;;;;;;;19.95;15.38;;;18.40;99.90;;;;;;4886094;29;20131;-91
2023/06/29 04:11:52;;;;;;;16.70;14.85;;;18.30;99.90;;;;;;4879723;29;20043;-91
2023/06/29 04:14:18;;;;;;;17.73;15.05;;;18.30;99.90;;;;;;4882584;29;20873;-91
2023/06/29 04:16:44;;;;;;;19.75;14.98;;;18.30;99.90;;;;;;4887507;29;20098;-91
2023/06/29 04:19:09;;;;;;;15.82;14.13;;;18.30;99.90;;;;;;4883906;29;20079;-91
2023/06/29 04:21:35;;;;;;;15.60;13.85;;;18.30;99.90;;;;;;4894468;29;20502;-91
2023/06/29 04:24:01;;;;;;;16.05;14.35;;;18.30;99.90;;;;;;4891365;29;20232;-91
2023/06/29 04:26:27;;;;;;;16.55;14.18;;;18.40;99.90;;;;;;4901710;29;20052;-91
2023/06/29 04:29:05;;;;;;;16.05;14.48;;;18.40;99.90;;;;;;4896221;29;20108;-91
2023/06/29 04:31:32;;;;;;;15.90;14.32;;;18.40;99.90;;;;;;4913951;29;20058;-91
2023/06/29 04:34:02;;;;;;;15.20;13.57;;;18.60;99.90;;;;;;4881955;29;20042;-91
2023/06/29 04:36:28;;;;;;;15.43;13.82;;;18.40;99.90;;;;;;4899972;29;20052;-91
2023/06/29 04:38:54;;;;;;;15.15;13.30;;;18.50;99.90;;;;;;4882694;29;20040;-91
2023/06/29 04:41:30;;;;;;;15.52;13.90;;;18.50;99.90;;;;;;4911434;29;20043;-91
2023/06/29 04:43:58;;;;;;;14.93;13.35;;;18.50;99.90;;;;;;4919774;29;20047;-91
2023/06/29 04:46:23;;;;;;;;;;;18.50;99.90;;;;;;4897190;29;20086;-91
2023/06/29 04:48:49;;;;;;;17.23;13.85;;;18.50;99.90;;;;;;4892419;29;19919;-92
2023/06/29 04:51:17;;;;;;;15.50;13.38;;;18.50;99.90;;;;;;4894388;29;20389;-92
2023/06/29 04:53:43;;;;;;;13.55;12.10;;;18.60;99.90;;;;;;4901230;29;20142;-92
2023/06/29 04:56:09;;;;;;;14.93;13.27;;;18.60;99.90;;;;;;4894522;29;20047;-92
2023/06/29 04:58:34;;;;;;;16.60;13.73;;;18.60;99.90;;;;;;4897856;29;20444;-91
2023/06/29 05:01:00;;;;;;;15.23;13.70;;;18.70;99.90;;;;;;4898138;29;20047;-91
2023/06/29 05:03:27;;;;;;;15.50;13.98;;;18.80;99.90;;;;;;4896420;29;20380;-92
2023/06/29 05:05:52;;;;;;;14.35;12.85;;;18.70;99.90;;;;;;4911245;29;20040;-91
2023/06/29 05:08:18;;;;;;;14.15;12.68;;;18.80;99.90;;;;;;4907921;29;20047;-91
2023/06/29 05:10:44;;;;;;;15.85;13.32;;;18.80;99.90;;;;;;4913088;29;20046;-91
2023/06/29 05:13:10;;;;;;;14.30;12.73;;;18.90;99.90;;;;;;4904957;29;20044;-91
2023/06/29 05:15:36;;;;;;;14.50;13.05;;;18.90;99.90;;;;;;4896881;29;20134;-91
2023/06/29 05:18:01;;;;;;;14.75;12.75;;;19.00;99.90;;;;;;4913906;29;20066;-91
2023/06/29 05:20:27;;;;;;;13.45;12.18;;;19.00;99.90;;;;;;4901418;29;20059;-91
2023/06/29 05:22:53;;;;;;;17.85;12.48;;;19.00;99.90;;;;;;4911321;29;20039;-91
2023/06/29 05:25:18;;;;;;;14.40;12.95;;;19.00;99.90;;;;;;4901316;29;20040;-91
2023/06/29 05:27:47;;;;;;;14.27;12.00;;;19.10;99.90;;;;;;4888165;29;20076;-91
2023/06/29 05:30:13;;;;;;;13.38;11.85;;;19.10;99.90;;;;;;4890340;29;20044;-91
2023/06/29 05:32:39;;;;;;;13.05;11.65;;;19.10;99.90;;;;;;4891020;29;20054;-91
2023/06/29 05:35:05;;;;;;;13.43;12.07;;;19.10;99.90;;;;;;4896594;29;20051;-90
2023/06/29 05:37:31;;;;;;;14.43;12.02;;;19.10;99.90;;;;;;4915663;29;20535;-88
2023/06/29 05:39:56;;;;;;;13.55;12.13;;;19.20;99.90;;;;;;4879191;29;20119;-88
2023/06/29 05:42:26;;;;;;;15.57;12.13;;;19.20;99.90;;;;;;4895153;29;20071;-86
2023/06/29 05:44:53;;;;;;;13.20;11.20;;;19.20;99.90;;;;;;4908492;29;20040;-85
2023/06/29 05:47:19;;;;;;;13.48;12.02;;;19.20;99.90;;;;;;4916710;29;20044;-87
2023/06/29 05:49:45;;;;;;;12.52;10.93;;;19.30;99.90;;;;;;4905658;29;20084;-86
2023/06/29 05:52:11;;;;;;;12.85;11.52;;;19.30;99.90;;;;;;4914504;29;20044;-88
2023/06/29 05:54:37;;;;;;;13.13;11.73;;;19.40;99.90;;;;;;4915847;29;20072;-90
2023/06/29 05:57:04;;;;;;;11.98;10.68;;;19.40;99.90;;;;;;4894746;29;20079;-90
2023/06/29 05:59:29;;;;;;;11.90;10.70;;;19.50;99.90;;;;;;4893731;29;20044;-90
2023/06/29 06:01:56;;;;;;;11.90;10.70;;;19.50;99.90;;;;;;4900279;29;20684;-90
2023/06/29 06:04:21;;;;;;;12.52;11.23;;;19.60;99.90;;;;;;4930426;29;20514;-90
2023/06/29 06:06:47;;;;;;;13.13;10.63;;;19.70;99.90;;;;;;4896338;29;20130;-88
2023/06/29 06:09:13;;;;;;;10.80;9.27;;;19.70;99.90;;;;;;4900342;29;20047;-93
2023/06/29 06:11:39;;;;;;;12.43;10.27;;;19.80;99.90;;;;;;4899647;29;20151;-86
2023/06/29 06:14:04;;;;;;;11.88;10.55;;;19.90;99.90;;;;;;4883152;29;20047;-86
2023/06/29 06:16:31;;;;;;;12.38;10.25;;;19.90;99.90;;;;;;4916538;29;20422;-85
2023/06/29 06:18:59;;;;;;;13.27;11.65;;;20.00;99.90;;;;;;4946779;29;20084;-85
2023/06/29 06:21:25;;;;;;;11.15;10.05;;;20.10;99.90;;;;;;4940834;28;20035;-86
2023/06/29 06:23:51;;;;;;;11.85;10.65;;;20.30;99.90;;;;;;4915914;28;20032;-86
2023/06/29 06:26:17;;;;;;;11.20;10.07;;;20.30;99.90;;;;;;4923865;29;20048;-86
2023/06/29 06:28:43;;;;;;;10.20;9.15;;;20.40;99.90;;;;;;4908701;29;20050;-86
2023/06/29 06:31:08;;;;;;;14.27;10.10;;;20.40;99.90;;;;;;4911069;29;20456;-84
2023/06/29 06:33:34;;;;;;;13.73;10.25;;;20.40;99.90;;;;;;4894330;29;20071;-86
2023/06/29 06:36:00;;;;;;;11.30;10.20;;;20.50;99.90;;;;;;4902240;29;20070;-85
2023/06/29 06:38:26;;;;;;;12.07;9.55;;;20.50;99.90;;;;;;4898587;29;20126;-85
2023/06/29 06:40:51;;;;;;;11.32;9.88;;;20.50;99.90;;;;;;4914732;29;20039;-85
2023/06/29 06:43:18;;;;;;;12.65;10.63;;;20.60;99.90;;;;;;4888559;29;20032;-85
2023/06/29 06:45:44;;;;;;;11.70;10.60;;;20.50;99.90;;;;;;4894246;29;20036;-86
2023/06/29 06:48:10;;;;;;;12.35;10.93;;;20.60;99.90;;;;;;4912306;29;20035;-88
2023/06/29 06:50:36;;;;;;;11.18;9.73;;;20.50;99.90;;;;;;4901955;29;20043;-88
2023/06/29 06:53:01;;;;;;;13.65;10.52;;;20.50;99.90;;;;;;4899292;29;20047;-87
2023/06/29 06:55:27;;;;;;;13.02;11.57;;;20.50;99.90;;;;;;4879244;29;20035;-86
2023/06/29 06:57:53;;;;;;;12.73;10.93;;;20.40;99.90;;;;;;4911057;29;20044;-88
2023/06/29 07:00:19;;;;;;;11.85;10.65;;;20.40;99.90;;;;;;4892268;29;20044;-86
2023/06/29 07:02:45;;;;;;;12.18;10.52;;;20.40;99.90;;;;;;4883137;29;20189;-86
2023/06/29 07:05:11;;;;;;;12.13;10.83;;;20.40;99.90;;;;;;4903761;29;20051;-87
2023/06/29 07:07:40;;;;;;;14.60;11.30;;;20.40;99.90;;;;;;4900668;29;20072;-87
2023/06/29 07:10:06;;;;;;;13.63;10.90;;;20.40;99.90;;;;;;4881722;29;20040;-88
2023/06/29 07:12:32;;;;;;;12.50;11.00;;;20.50;99.90;;;;;;4903500;29;20090;-87
2023/06/29 07:14:57;;;;;;;11.98;10.85;;;20.40;99.90;;;;;;4886295;29;20039;-85
2023/06/29 07:17:23;;;;;;;12.30;11.10;;;20.50;99.90;;;;;;4903464;29;20046;-87
2023/06/29 07:19:49;;;;;;;12.55;10.60;;;20.50;99.90;;;;;;4887994;29;20063;-87
2023/06/29 07:22:15;;;;;;;12.73;10.85;;;20.50;99.90;;;;;;4874394;29;20066;-86
2023/06/29 07:24:40;;;;;;;11.48;9.82;;;20.50;99.90;;;;;;4915787;29;20043;-86
2023/06/29 07:27:06;;;;;;;11.25;9.98;;;20.50;99.90;;;;;;4898158;29;20036;-87
2023/06/29 07:29:33;;;;;;;12.88;11.48;;;20.50;99.90;;;;;;4890986;29;20044;-87
2023/06/29 07:31:59;;;;;;;11.75;10.52;;;20.50;99.90;;;;;;4893840;29;20071;-87
2023/06/29 07:34:24;;;;;;;11.95;9.60;;;20.50;99.90;;;;;;4914279;29;20090;-88
2023/06/29 07:36:51;;;;;;;12.30;10.25;;;20.50;99.90;;;;;;4893253;29;20040;-87
2023/06/29 07:39:17;;;;;;;14.00;11.02;;;20.60;99.90;;;;;;4917649;29;20040;-87
2023/06/29 07:41:43;;;;;;;13.60;10.90;;;20.50;99.90;;;;;;4926508;29;20058;-87
2023/06/29 07:44:09;;;;;;;12.10;10.82;;;20.50;99.90;;;;;;4930406;29;20063;-87
2023/06/29 07:46:35;;;;;;;11.23;10.05;;;20.50;99.90;;;;;;4924229;29;20198;-86
2023/06/29 07:49:01;;;;;;;12.82;9.85;;;20.50;99.90;;;;;;4951034;29;20028;-87
2023/06/29 07:51:32;;;;;;;12.70;11.40;;;20.50;99.90;;;;;;4904940;29;20103;-93
2023/06/29 07:54:00;;;;;;;11.85;10.65;;;20.40;99.90;;;;;;4894994;29;20104;-95
2023/06/29 07:56:28;;;;;;;12.68;11.38;;;20.50;99.90;;;;;;4901149;29;20040;-94
2023/06/29 07:58:54;;;;;;;12.95;11.15;;;20.40;99.90;;;;;;4894909;29;20518;-93
2023/06/29 08:01:19;;;;;;;12.65;11.30;;;20.40;99.90;;;;;;4914554;29;20064;-93
2023/06/29 08:03:45;;;;;;;15.63;11.75;;;20.40;99.90;;;;;;4900717;29;20036;-93
2023/06/29 08:06:11;;;;;;;12.30;11.00;;;20.40;99.90;;;;;;4909318;29;20055;-91
2023/06/29 08:08:40;;;;;;;13.25;11.23;;;20.30;99.90;;;;;;4914581;29;20040;-93
2023/06/29 08:11:06;;;;;;;12.68;11.13;;;20.40;99.90;;;;;;4901404;29;20047;-93
2023/06/29 08:13:32;;;;;;;12.68;11.32;;;20.30;99.90;;;;;;4902570;29;20075;-94
2023/06/29 08:15:58;;;;;;;15.73;12.35;;;20.10;99.90;;;;;;4910351;29;20044;-94
2023/06/29 08:18:24;;;;;;;13.13;11.73;;;20.20;99.90;;;;;;4903822;29;20400;-93
2023/06/29 08:20:50;;;;;;;14.52;11.75;;;20.20;99.90;;;;;;4902292;29;20067;-93
2023/06/29 08:23:16;;;;;;;12.98;11.68;;;20.20;99.90;;;;;;4910008;29;20051;-93
2023/06/29 08:25:48;;;;;;;14.52;11.75;;;20.20;99.90;;;;;;4904203;29;20044;-93
2023/06/29 08:28:14;;;;;;;13.05;11.75;;;20.20;99.90;;;;;;4911019;29;20040;-94
2023/06/29 08:30:43;;;;;;;13.00;10.93;;;20.20;99.90;;;;;;4918212;29;20050;-93
2023/06/29 08:33:09;;;;;;;13.65;11.52;;;20.80;99.90;;;;;;4913859;29;20075;-93
2023/06/29 08:35:34;;;;;;;12.90;11.57;;;20.40;99.90;;;;;;4900609;29;20052;-93
2023/06/29 08:38:01;;;;;;;14.18;12.65;;;20.50;99.90;;;;;;4908917;29;20063;-95
2023/06/29 08:40:31;;;;;;;14.25;11.70;;;20.60;99.90;;;;;;4899287;29;20042;-93
2023/06/29 08:42:57;;;;;;;13.23;11.05;;;20.70;99.90;;;;;;4907554;29;20383;-93
2023/06/29 08:45:22;;;;;;;14.65;11.80;;;20.80;99.90;;;;;;4885347;29;20039;-93
2023/06/29 08:47:51;;;;;;;14.25;11.52;;;21.00;99.90;;;;;;4885290;29;20792;-94
2023/06/29 08:50:23;;;;;;;13.63;11.40;;;21.00;99.90;;;;;;4901863;29;20122;-94
2023/06/29 08:52:49;;;;;;;12.40;11.10;;;21.60;99.90;;;;;;4900651;29;20051;-93
2023/06/29 08:55:15;;;;;;;14.40;11.20;;;21.20;99.90;;;;;;4914498;29;20447;-92
2023/06/29 08:57:41;;;;;;;12.65;11.35;;;;;;;;;;4901285;29;20051;-94
2023/06/29 09:00:13;;;;;;;10.83;9.60;;;21.30;99.90;;;;;;4913856;29;20094;-95
2023/06/29 09:02:39;;;;;;;11.80;10.55;;;21.40;99.90;;;;;;4914058;29;20032;-94
2023/06/29 09:05:05;;;;;;;12.90;10.65;;;21.40;99.90;;;;;;4905018;29;20131;-93
2023/06/29 09:07:31;;;;;;;11.65;10.32;;;21.50;99.90;;;;;;4905091;29;20718;-93
2023/06/29 09:09:57;;;;;;;12.83;11.37;;;21.60;99.90;;;;;;4900130;29;20107;-93
2023/06/29 09:12:26;;;;;;;13.52;10.88;;;21.60;99.90;;;;;;4894130;29;20059;-93
2023/06/29 09:14:53;;;;;;;13.52;9.93;;;21.70;99.90;;;;;;4903182;29;20051;-93
2023/06/29 09:17:21;;;;;;;13.10;10.60;;;21.70;99.90;;;;;;4901754;29;20336;-94
2023/06/29 09:19:57;;;;;;;12.95;11.15;;;21.70;99.90;;;;;;4904122;29;20128;-92
2023/06/29 09:22:26;;;;;;;14.30;11.93;;;21.70;99.90;;;;;;4909620;29;20040;-93
2023/06/29 09:24:57;;;;;;;14.02;11.15;;;21.60;99.90;;;;;;4908024;29;20043;-93
2023/06/29 09:27:23;;;;;;;12.20;10.90;;;21.50;99.90;;;;;;4918727;29;20086;-92
2023/06/29 09:29:51;;;;;;;12.30;11.20;;;21.60;99.90;;;;;;4918729;29;20082;-93
2023/06/29 09:32:16;;;;;;;13.70;11.23;;;21.60;99.90;;;;;;4898605;29;20621;-93
2023/06/29 09:34:47;;;;;;;11.68;10.35;;;21.60;99.90;;;;;;4912674;29;20040;-93
2023/06/29 09:37:15;;;;;;;12.63;11.23;;;21.70;99.90;;;;;;4895829;29;20044;-95
2023/06/29 09:39:56;;;;;;;12.27;10.48;;;21.70;99.90;;;;;;4916755;29;20043;-93
2023/06/29 09:42:23;;;;;;;14.40;11.63;;;21.70;99.90;;;;;;4913005;29;20040;-93
2023/06/29 09:44:49;;;;;;;12.88;11.55;;;21.70;99.90;;;;;;4911415;29;20047;-93
2023/06/29 09:47:17;;;;;;;14.52;11.07;;;21.70;99.90;;;;;;4900485;29;20043;-92
2023/06/29 09:49:44;;;;;;;14.43;12.88;;;21.80;99.90;;;;;;4915768;29;20128;-91
2023/06/29 09:52:10;;;;;;;12.75;11.45;;;21.80;99.90;;;;;;4884202;29;20035;-93
2023/06/29 09:54:36;;;;;;;13.27;11.88;;;21.80;99.90;;;;;;4890878;29;20511;-93
2023/06/29 09:57:03;;;;;;;12.67;11.50;;;21.70;99.90;;;;;;4885102;29;20059;-93
2023/06/29 09:59:31;;;;;;;13.57;11.38;;;21.70;99.90;;;;;;4912481;29;20046;-93
2023/06/29 10:01:57;;;;;;;12.80;11.50;;;21.70;99.90;;;;;;4904673;29;20170;-92
2023/06/29 10:04:26;;;;;;;12.95;11.57;;;21.70;99.90;;;;;;4908481;29;20048;-92
2023/06/29 10:06:59;;;;;;;12.32;11.18;;;21.70;99.90;;;;;;4896999;29;20376;-92
2023/06/29 10:09:26;;;;;;;13.57;11.82;;;21.60;99.90;;;;;;4917556;29;20542;-92
2023/06/29 10:11:55;;;;;;;13.05;11.77;;;21.50;99.90;;;;;;4899059;29;20047;-93
2023/06/29 10:14:22;;;;;;;15.07;12.75;;;21.50;99.90;;;;;;4910577;29;20055;-92
2023/06/29 10:16:52;;;;;;;13.77;12.38;;;21.50;99.90;;;;;;4915595;29;20043;-92
2023/06/29 10:19:20;;;;;;;13.73;12.43;;;21.40;99.90;;;;;;4898262;29;20134;-92
2023/06/29 10:21:49;;;;;;;13.65;12.35;;;21.50;99.90;;;;;;4901956;29;20050;-93
2023/06/29 10:24:24;;;;;;;13.20;11.90;;;21.50;99.90;;;;;;4917218;29;20043;-93
2023/06/29 10:26:51;;;;;;;14.23;11.65;;;21.50;99.90;;;;;;4912682;29;20032;-92
2023/06/29 10:29:17;;;;;;;12.05;10.80;;;21.50;99.90;;;;;;4907134;29;20046;-93
2023/06/29 10:31:54;;;;;;;11.75;10.57;;;21.50;99.90;;;;;;4903643;29;20043;-92
2023/06/29 10:38:22;;;;;;;12.23;11.02;;;21.40;99.90;;;;;;4910266;29;20097;-91
2023/06/29 10:41:13;;;;;;;11.73;10.30;;;21.30;99.90;;;;;;4904343;29;20032;-93
2023/06/29 10:50:24;;;;;;;11.93;10.80;;;21.30;99.90;;;;;;4921503;29;20047;-93
2023/06/29 10:52:59;;;;;;;11.63;10.52;;;21.00;99.90;;;;;;4917685;29;20040;-92
2023/06/29 10:55:37;;;;;;;12.38;11.00;;;21.20;99.90;;;;;;4907729;29;20095;-93
2023/06/29 10:58:14;;;;;;;12.88;10.90;;;21.20;99.90;;;;;;4913673;29;20075;-92
2023/06/29 11:01:10;;;;;;;12.32;11.02;;;21.20;99.90;;;;;;4920066;29;20603;-93
2023/06/29 11:04:05;;;;;;;12.20;11.00;;;21.10;99.90;;;;;;4915360;29;20118;-92
2023/06/29 11:07:07;;;;;;;12.48;11.27;;;21.10;99.90;;;;;;4907620;29;20488;-92
2023/06/29 11:09:36;;;;;;;12.10;11.00;;;21.10;99.90;;;;;;4909485;29;20470;-92
2023/06/29 11:12:04;;;;;;;12.60;11.40;;;21.10;99.90;;;;;;4915077;29;20039;-92
2023/06/29 11:14:38;;;;;;;12.15;11.05;;;21.10;99.90;;;;;;4913302;29;20036;-92
2023/06/29 11:17:08;;;;;;;12.27;10.50;;;21.20;99.90;;;;;;4903111;29;20054;-92
2023/06/29 11:19:45;;;;;;;11.85;10.70;;;21.20;99.90;;;;;;4915814;29;20566;-92
2023/06/29 11:26:46;;;;;;;;;;;;;;;;;;;;;
2023/06/29 11:33:57;;;;;;;11.55;10.45;;;21.50;99.90;;;;;;4896035;29;20056;-92
2023/06/29 11:40:25;;;;;;;11.00;9.90;;;21.70;99.90;;;;;;4774243;29;20078;-91
2023/06/29 11:43:53;;;;;;;11.63;10.52;;;21.70;99.90;;;;;;4851833;29;20099;-92
2023/06/29 11:46:35;;;;;;;10.43;9.27;;;21.70;99.90;;;;;;4863865;29;20044;-92
2023/06/29 11:49:18;;;;;;;10.68;9.57;;;21.80;99.90;;;;;;4866003;29;20047;-92
2023/06/29 11:51:51;;;;;;;11.85;10.65;;;21.80;99.90;;;;;;4889602;29;20603;-92
2023/06/29 11:54:26;;;;;;;12.27;11.13;;;21.80;99.90;;;;;;4918722;29;20063;-92
2023/06/29 11:56:53;;;;;;;11.73;10.52;;;22.00;99.90;;;;;;4915342;29;20046;-93
2023/06/29 11:59:20;;;;;;;11.48;10.30;;;21.80;99.90;;;;;;4917344;29;20043;-92
2023/06/29 12:02:10;;;;;;;11.85;10.65;;;21.80;99.90;;;;;;4918827;29;20166;-93
2023/06/29 12:04:36;;;;;;;11.55;9.93;;;21.90;99.90;;;;;;4899016;29;20126;-92
2023/06/29 12:07:10;;;;;;;11.77;10.57;;;22.00;99.90;;;;;;4910736;29;20043;-92
2023/06/29 12:09:41;;;;;;;11.65;10.55;;;22.10;99.90;;;;;;4913099;29;20044;-92
2023/06/29 12:12:48;;;;;;;13.63;12.38;;;21.90;99.90;;;;;;4905387;29;20047;-93
2023/06/29 12:15:19;;;;;;;13.77;12.40;;;22.20;99.90;;;;;;4919916;29;20047;-92
2023/06/29 12:17:46;;;;;;;13.57;12.23;;;22.30;99.90;;;;;;4908655;28;20039;-91
2023/06/29 12:20:20;;;;;;;12.45;11.15;;;22.30;99.90;;;;;;4918397;29;20055;-92
2023/06/29 12:22:49;;;;;;;14.02;12.55;;;22.30;99.90;;;;;;4908132;29;20066;-91
2023/06/29 12:25:21;;;;;;;14.40;13.00;;;22.30;99.90;;;;;;4903037;29;20720;-92
2023/06/29 12:27:54;;;;;;;14.32;12.93;;;22.20;99.90;;;;;;4899018;29;20051;-90
2023/06/29 12:30:26;;;;;;;14.15;12.75;;;22.50;99.90;;;;;;4904612;29;20127;-91
2023/06/29 12:33:18;;;;;;;14.02;12.73;;;22.20;99.90;;;;;;4917645;29;20054;-92
2023/06/29 12:36:03;;;;;;;14.90;13.32;;;22.60;99.90;;;;;;4913687;29;20134;-92
2023/06/29 12:38:31;;;;;;;12.85;11.55;;;22.60;99.90;;;;;;4901445;29;20035;-92
2023/06/29 12:40:57;;;;;;;14.82;13.43;;;22.80;99.90;;;;;;4886293;29;20086;-93
2023/06/29 12:43:23;;;;;;;13.63;12.30;;;23.00;99.90;;;;;;4894986;29;20048;-92
2023/06/29 12:45:49;;;;;;;14.40;12.95;;;23.20;99.90;;;;;;4914846;29;20372;-91
2023/06/29 12:48:18;;;;;;;15.60;14.00;;;23.30;99.90;;;;;;4910658;29;20458;-91
2023/06/29 12:50:59;;;;;;;15.63;13.98;;;23.40;99.90;;;;;;4898885;29;20174;-92
2023/06/29 12:53:38;;;;;;;14.80;13.40;;;23.60;99.90;;;;;;4907128;29;20046;-91
2023/06/29 12:56:04;;;;;;;14.05;12.65;;;23.60;99.90;;;;;;4906338;29;20052;-93
2023/06/29 12:58:30;;;;;;;14.32;12.90;;;23.70;99.90;;;;;;4919523;29;20459;-93
2023/06/29 13:00:56;;;;;;;13.43;12.17;;;23.70;99.90;;;;;;4910056;29;20118;-92